Date,TemperatureHighF,TemperatureAvgF,TemperatureLowF,DewpointHighF,DewpointAvgF,DewpointLowF,HumidityHigh,HumidityAvg,HumidityLow,PressureMaxIn,PressureMinIn,WindSpeedMaxMPH,WindSpeedAvgMPH,GustSpeedMaxMPH,PrecipitationSumIn
2013-1-1,58.4,38.4,28.2,35.8,29.8,23.2,97,76,26,30.33,30.23,4,1,9,0.00
2013-1-2,52.9,35.5,26.0,38.5,29.6,24.9,97,82,42,30.29,30.18,3,1,4,0.00
2013-1-3,53.0,35.5,26.0,36.7,29.9,25.0,97,83,43,30.32,30.21,4,1,7,0.01
2013-1-4,54.4,36.7,27.7,39.7,32.0,27.0,98,85,49,30.34,30.22,4,1,6,0.00
2013-1-5,49.8,40.8,30.5,42.6,37.3,29.6,98,88,67,30.31,30.14,4,1,6,0.06
2013-1-6,53.8,42.9,32.8,48.3,41.0,32.0,99,93,74,30.21,30.11,3,0,6,0.12
2013-1-7,53.7,40.3,31.4,46.6,37.6,30.6,99,91,68,30.24,30.17,4,1,6,0.01
2013-1-8,53.9,41.6,34.3,47.2,39.7,33.5,99,93,77,30.29,30.16,3,0,6,0.00
2013-1-9,48.7,41.4,32.8,46.4,40.2,32.0,99,96,87,30.21,29.92,5,1,10,0.21
2013-1-10,48.4,34.5,27.9,40.3,31.0,26.1,99,89,44,30.18,30.04,3,1,6,0.01
2013-1-11,48.1,33.3,24.9,36.4,29.0,24.2,98,86,53,30.26,30.16,3,1,6,0.00
2013-1-12,45.3,31.0,22.5,26.4,23.7,20.8,96,78,40,30.28,30.18,3,1,4,0.01
2013-1-13,46.8,29.5,19.3,25.7,21.5,17.9,95,76,33,30.34,30.23,5,1,9,0.00
2013-1-14,51.5,32.8,21.4,27.5,22.4,18.7,92,70,30,30.47,30.34,3,1,7,0.00
2013-1-15,49.6,34.2,24.8,34.6,28.6,23.6,96,82,52,30.55,30.42,3,1,5,0.00
2013-1-16,54.8,35.5,25.4,40.0,30.5,24.4,99,84,48,30.49,30.32,4,1,6,0.01
2013-1-17,57.3,36.5,24.5,39.8,31.2,23.5,97,84,49,30.33,30.19,4,1,6,0.00
2013-1-18,65.1,39.4,25.6,37.8,29.9,24.6,97,76,26,30.29,30.17,3,1,6,0.01
2013-1-19,63.6,39.7,25.6,39.2,30.4,24.4,96,75,29,30.33,30.20,3,1,4,0.01
2013-1-20,64.7,39.9,26.3,40.0,30.9,25.1,96,76,30,30.28,30.14,2,1,4,0.00
2013-1-21,60.4,39.7,27.0,41.1,32.4,25.8,96,79,38,30.24,30.15,5,2,9,0.01
2013-1-22,61.3,41.3,27.9,39.2,33.3,26.9,97,77,36,30.18,30.05,4,1,6,0.00
2013-1-23,58.5,46.6,36.7,49.2,42.0,34.3,98,85,54,30.15,30.01,2,0,4,0.44
2013-1-24,60.7,52.7,46.2,59.8,51.2,45.7,99,95,83,30.20,30.10,3,0,4,0.07
2013-1-25,62.9,54.2,49.7,55.8,52.3,49.2,99,93,75,30.20,30.04,3,0,6,0.03
2013-1-26,56.5,49.0,39.7,53.1,48.0,39.2,99,97,83,30.04,29.93,3,0,4,0.12
2013-1-27,54.6,40.8,31.6,46.0,35.4,30.5,100,84,40,30.16,30.02,4,1,11,0.01
2013-1-28,56.8,42.2,30.8,39.2,35.4,29.9,98,80,44,30.29,30.15,5,1,11,0.00
2013-1-29,61.7,42.3,31.5,44.3,36.9,30.7,98,84,48,30.37,30.25,3,1,7,0.00
2013-1-30,62.5,44.7,33.8,47.5,39.8,33.0,99,85,55,30.37,30.26,5,1,6,0.00
2013-1-31,61.6,43.0,31.2,47.9,38.7,30.4,99,87,56,30.34,30.22,3,1,5,0.01
2013-2-1,66.3,44.7,31.3,46.0,37.4,30.5,99,80,38,30.26,30.15,3,1,6,0.01
2013-2-2,66.0,46.3,35.1,46.1,39.7,34.3,98,81,43,30.31,30.21,3,1,6,0.00
2013-2-3,64.3,44.7,31.7,47.9,39.4,30.9,99,84,49,30.26,30.12,3,1,6,0.00
2013-2-4,62.7,45.6,33.3,47.3,40.0,32.3,98,83,52,30.19,30.07,4,1,5,0.01
2013-2-5,57.2,44.6,33.2,48.9,41.4,32.4,98,89,72,30.17,30.03,4,1,8,0.00
2013-2-6,58.3,43.3,30.8,43.3,37.5,30.0,99,82,52,30.19,30.09,4,1,6,0.01
2013-2-7,52.6,46.0,39.2,45.9,42.0,37.9,96,86,72,30.13,29.99,5,1,8,0.47
2013-2-8,57.5,42.7,30.6,43.3,33.3,23.9,98,75,28,30.03,29.93,5,1,10,0.01
2013-2-9,59.2,40.3,26.3,34.0,29.0,24.8,95,70,29,30.13,30.01,3,1,9,0.00
2013-2-10,63.0,41.9,28.0,38.8,31.9,26.8,96,72,28,30.16,30.02,4,1,7,0.00
2013-2-11,63.5,44.4,30.9,37.4,31.1,25.2,91,65,28,30.28,30.14,5,1,10,0.00
2013-2-12,59.5,42.2,29.4,40.6,34.4,28.1,96,77,45,30.40,30.28,3,1,5,0.00
2013-2-13,65.1,44.7,30.0,46.8,37.6,29.1,98,80,40,30.36,30.21,3,1,7,0.00
2013-2-14,76.2,51.8,33.7,46.3,37.0,32.3,98,65,22,30.30,30.16,5,1,14,0.01
2013-2-15,69.9,49.1,33.2,47.0,38.8,31.1,94,72,37,30.30,30.23,3,1,6,0.00
2013-2-16,68.2,48.1,33.2,47.7,39.6,32.2,97,77,41,30.29,30.06,4,1,6,0.00
2013-2-17,67.5,46.6,32.9,45.5,36.2,32.0,98,73,29,30.06,29.94,4,1,10,0.00
2013-2-18,60.8,46.4,33.1,46.0,38.8,31.9,97,77,49,30.02,29.87,7,1,12,0.00
2013-2-19,49.2,41.9,31.0,44.0,37.7,30.2,97,86,69,29.90,29.71,5,1,12,0.26
2013-2-20,58.8,41.1,28.1,42.4,32.1,27.4,98,76,33,30.03,29.84,4,1,11,0.01
2013-2-21,60.5,41.8,28.3,37.3,30.9,25.3,96,71,29,30.18,30.03,5,1,9,0.00
2013-2-22,60.6,45.8,29.7,41.6,36.0,28.2,96,71,42,30.26,30.12,4,1,7,0.00
2013-2-23,59.2,47.5,31.7,40.5,30.8,19.8,91,57,22,30.29,30.11,6,2,16,0.00
2013-2-24,63.9,42.9,27.1,33.1,27.8,24.3,90,62,24,30.31,30.15,4,1,9,0.00
2013-2-25,63.0,46.1,32.3,36.2,29.9,17.6,89,59,18,30.30,30.17,5,1,10,0.00
2013-2-26,66.7,45.0,27.9,32.4,28.0,23.9,91,59,20,30.27,30.15,5,1,11,0.00
2013-2-27,66.2,48.0,29.5,39.5,31.4,25.5,89,58,26,30.37,30.23,4,2,9,0.00
2013-2-28,71.1,53.1,37.9,44.5,38.7,33.5,89,63,28,30.46,30.36,5,1,8,0.00
2013-3-1,73.5,51.8,35.9,48.7,42.6,34.6,97,75,36,30.44,30.24,3,1,6,0.00
2013-3-2,70.6,56.1,42.2,50.4,46.7,40.4,96,74,42,30.28,30.06,4,1,7,0.00
2013-3-3,67.9,55.9,44.8,53.9,49.7,43.2,95,81,51,30.07,29.99,6,1,11,0.01
2013-3-4,66.7,49.9,37.9,51.4,44.6,37.1,98,84,51,30.13,30.00,5,1,8,0.00
2013-3-5,62.9,54.1,44.1,46.5,40.8,32.1,94,64,33,30.01,29.78,5,1,10,0.27
2013-3-6,56.5,49.0,38.1,45.5,41.8,36.5,94,78,49,30.03,29.77,9,3,15,0.35
2013-3-7,60.5,44.4,33.1,42.0,36.4,32.3,98,77,39,30.02,29.89,4,1,7,0.00
2013-3-8,66.0,47.8,31.3,41.5,34.9,30.3,97,67,27,30.05,29.79,5,1,12,0.00
2013-3-9,70.1,50.0,33.6,43.2,35.1,29.8,97,64,23,30.33,30.05,6,1,11,0.00
2013-3-10,71.5,49.4,32.6,45.6,37.2,29.5,89,67,22,30.38,30.23,4,1,7,0.00
2013-3-11,71.9,52.2,34.9,46.8,41.0,33.6,96,70,36,30.29,30.09,3,1,6,0.00
2013-3-12,75.1,55.5,38.3,52.2,45.0,37.2,97,72,38,30.18,30.06,3,1,6,0.00
2013-3-13,80.4,58.5,41.3,53.9,47.5,40.2,97,72,28,30.19,30.06,3,1,7,0.00
2013-3-14,77.7,59.4,42.5,54.9,47.4,40.8,94,69,35,30.14,30.07,3,1,7,0.00
2013-3-15,78.5,59.3,46.5,51.0,46.2,40.2,92,67,26,30.11,30.00,3,1,9,0.00
2013-3-16,76.5,58.1,39.2,45.6,39.4,27.8,93,57,17,30.08,29.95,4,1,8,0.00
2013-3-17,72.3,53.3,36.2,41.7,35.4,23.7,94,58,17,30.12,30.01,5,1,10,0.00
2013-3-18,70.9,53.8,35.0,45.7,38.0,32.9,93,61,27,30.11,30.01,2,1,4,0.00
2013-3-19,68.3,57.0,50.0,54.8,48.5,42.8,96,76,41,30.11,30.05,5,1,9,0.28
2013-3-20,59.5,55.3,49.6,54.5,52.5,48.0,97,90,82,30.09,30.02,2,1,5,0.40
2013-3-21,66.3,54.5,40.8,52.2,40.7,29.0,97,65,25,30.13,30.00,5,2,10,0.00
2013-3-22,64.4,47.0,29.6,36.7,29.8,23.1,94,60,21,30.15,30.05,4,1,0,0.00
2013-3-23,70.7,48.5,30.3,37.6,31.2,21.9,94,60,16,30.15,30.02,3,1,0,0.00
2013-3-24,74.0,54.0,36.8,46.0,38.7,34.5,93,63,25,30.10,29.94,3,1,0,0.00
2013-3-25,70.0,55.9,38.7,49.9,43.1,36.2,95,65,39,30.00,29.87,3,1,0,0.00
2013-3-26,68.4,55.3,40.0,50.5,44.6,38.1,94,69,45,29.99,29.91,3,1,2,0.00
2013-3-27,72.5,57.8,43.1,52.6,48.5,41.8,96,74,47,29.98,29.90,4,1,8,0.00
2013-3-28,66.8,59.0,48.3,53.3,49.6,45.9,94,72,49,30.11,29.98,4,1,8,0.00
2013-3-29,79.6,58.8,40.5,54.4,46.5,39.7,98,70,30,30.12,30.01,3,1,7,0.00
2013-3-30,76.4,60.9,45.5,57.1,50.6,43.5,94,72,44,30.05,29.95,4,1,8,0.00
2013-3-31,67.2,58.4,52.0,56.8,52.9,47.8,97,83,52,30.10,29.97,4,1,7,0.72
2013-4-1,68.6,56.6,47.7,55.1,50.5,46.3,98,82,52,30.16,30.04,3,1,6,0.01
2013-4-2,74.7,57.2,43.3,53.7,48.1,42.5,98,76,37,30.17,30.05,3,1,7,0.00
2013-4-3,75.0,58.9,44.7,57.8,51.2,43.6,98,79,47,30.15,29.96,3,1,6,0.00
2013-4-4,63.5,55.7,52.3,58.6,53.3,47.7,95,92,66,30.08,29.93,5,0,10,0.49
2013-4-5,67.1,56.8,47.3,55.5,51.3,46.8,99,83,56,30.15,30.06,5,1,9,0.01
2013-4-6,68.8,59.9,52.5,55.1,52.5,50.5,94,78,54,30.17,30.06,4,1,8,0.00
2013-4-7,67.5,58.9,47.7,54.9,49.2,43.6,95,72,49,30.10,29.74,5,1,10,0.10
2013-4-8,68.5,55.2,42.1,47.8,37.1,29.2,97,57,24,30.06,29.75,5,2,17,0.30
2013-4-9,76.4,55.2,35.2,45.0,38.3,33.9,97,62,23,30.15,30.03,5,2,14,0.00
2013-4-10,85.8,64.8,42.8,58.4,47.3,40.8,95,59,26,30.19,29.96,3,1,6,0.00
2013-4-11,78.8,62.2,45.4,48.8,43.3,34.6,95,57,21,30.01,29.80,5,1,10,0.00
2013-4-12,82.3,59.5,40.1,53.1,44.3,37.7,95,65,21,29.90,29.76,3,1,6,0.00
2013-4-13,78.2,61.1,45.3,52.1,41.7,27.7,93,57,17,29.86,29.76,4,1,9,0.00
2013-4-14,73.3,56.1,37.9,45.7,38.3,26.4,96,58,19,29.88,29.72,3,1,12,0.00
2013-4-15,64.1,51.5,36.7,41.4,34.5,24.0,95,58,22,29.93,29.76,6,1,16,0.00
2013-4-16,68.9,49.8,32.4,36.7,30.9,20.1,93,56,16,30.21,29.94,5,1,12,0.00
2013-4-17,72.1,51.2,31.2,36.1,29.8,21.1,94,54,15,30.32,30.17,5,1,11,0.00
2013-4-18,79.2,57.8,36.4,46.3,36.4,28.9,87,53,20,30.30,30.15,3,1,5,0.00
2013-4-19,82.0,61.7,42.6,48.5,44.5,40.6,93,59,29,30.24,30.04,2,1,0,0.00
2013-4-20,87.0,61.8,41.5,47.6,41.9,35.4,94,58,18,30.12,29.92,3,1,2,0.00
2013-4-21,89.3,64.5,42.1,51.6,44.2,38.4,94,57,17,30.05,29.89,4,1,9,0.00
2013-4-22,88.3,67.0,44.8,51.3,41.2,27.0,94,50,12,29.98,29.83,3,1,10,0.00
2013-4-23,86.2,64.9,42.7,46.0,34.1,23.7,72,38,14,29.99,29.79,4,1,10,0.00
2013-4-24,89.9,66.2,41.8,43.0,34.6,18.9,85,42,8,29.88,29.75,5,1,13,0.00
2013-4-25,81.0,61.2,42.3,51.5,46.7,36.1,92,63,29,30.07,29.82,2,1,4,0.00
2013-4-26,85.8,62.4,44.0,59.3,51.1,42.6,96,71,34,30.19,30.06,2,0,5,0.00
2013-4-27,91.1,67.3,48.0,61.2,54.3,46.7,97,68,31,30.19,30.00,2,0,4,0.00
2013-4-28,93.8,70.5,51.8,58.6,51.8,41.8,93,59,17,30.03,29.82,2,0,6,0.00
2013-4-29,89.4,69.9,49.5,55.5,48.4,41.8,91,54,21,29.89,29.71,5,1,11,0.00
2013-4-30,84.6,67.1,47.2,49.9,33.4,13.7,91,42,8,29.93,29.74,6,2,13,0.00
2013-5-1,88.3,68.8,43.7,33.2,25.0,11.4,66,25,9,30.11,29.93,4,2,11,0.00
2013-5-2,92.7,70.0,44.3,50.0,34.5,10.3,71,34,9,30.19,30.03,4,1,10,0.00
2013-5-3,94.2,70.4,48.9,53.4,44.1,33.0,79,46,12,30.07,29.72,3,1,6,0.00
2013-5-4,92.7,70.3,47.7,50.2,40.1,32.5,80,41,12,29.79,29.49,6,1,12,0.00
2013-5-5,75.5,62.5,48.9,52.9,47.4,40.8,85,60,37,29.80,29.51,3,0,6,0.00
2013-5-6,69.4,58.3,51.2,59.8,53.6,49.3,95,85,62,29.94,29.80,1,0,3,0.14
2013-5-7,74.1,59.3,46.9,57.8,52.7,46.0,97,81,52,30.00,29.94,2,0,4,0.00
2013-5-8,75.9,64.1,56.2,60.0,56.6,53.9,93,78,49,30.09,30.00,2,0,4,0.00
2013-5-9,86.4,68.1,52.7,63.0,57.8,51.4,97,73,44,30.11,29.97,2,0,6,0.00
2013-5-10,89.7,71.7,54.7,66.3,60.6,53.3,96,71,41,30.13,29.99,2,1,4,0.00
2013-5-11,97.1,74.6,56.8,70.2,62.6,55.4,96,70,34,30.09,29.97,2,0,4,0.00
2013-5-12,96.3,75.4,57.8,65.1,54.0,35.7,94,56,13,30.08,29.93,3,1,8,0.00
2013-5-13,92.8,71.3,50.1,57.3,51.5,45.4,89,56,20,30.03,29.88,3,1,6,0.00
2013-5-14,93.8,74.7,53.2,61.0,53.4,46.8,82,53,22,29.90,29.79,2,1,6,0.00
2013-5-15,81.9,67.6,53.8,58.6,54.0,50.0,93,65,39,29.98,29.86,4,1,6,0.00
2013-5-16,74.1,65.0,57.7,57.1,54.3,51.8,94,70,49,29.96,29.85,3,0,8,0.01
2013-5-17,78.1,63.2,51.1,52.8,48.3,35.7,89,62,22,30.02,29.89,3,1,8,0.00
2013-5-18,84.4,64.2,45.0,52.4,47.6,42.6,93,60,26,30.11,30.00,2,0,4,0.00
2013-5-19,88.5,66.7,45.1,49.9,43.8,34.4,93,51,16,30.13,29.94,5,1,11,0.00
2013-5-20,91.2,70.2,46.3,54.1,44.3,36.7,82,46,17,30.03,29.84,4,1,9,0.00
2013-5-21,80.8,67.6,54.1,52.7,40.8,24.4,78,43,17,29.94,29.82,4,1,10,0.00
2013-5-22,74.7,58.5,41.5,33.4,26.6,13.2,62,33,10,29.97,29.82,5,2,15,0.00
2013-5-23,77.8,58.1,41.3,43.7,37.3,31.9,77,50,20,29.97,29.85,2,1,6,0.00
2013-5-24,79.2,61.8,42.4,47.5,40.7,35.1,81,50,21,29.98,29.86,3,1,6,0.00
2013-5-25,81.0,62.7,42.9,50.5,44.7,39.4,89,56,23,29.98,29.88,3,1,8,0.00
2013-5-26,80.7,63.0,46.1,54.3,47.7,43.1,90,61,29,30.05,29.95,4,1,8,0.00
2013-5-27,69.5,58.1,47.8,57.3,52.1,44.7,96,81,54,30.08,29.96,2,0,6,0.24
2013-5-28,79.6,65.4,55.5,59.9,56.4,51.2,98,76,38,29.97,29.85,2,0,5,0.00
2013-5-29,83.8,67.7,55.0,58.8,53.3,43.3,94,65,26,29.90,29.82,3,1,8,0.00
2013-5-30,86.9,67.6,48.6,55.9,44.6,26.8,93,53,12,29.97,29.88,2,1,7,0.00
2013-5-31,96.1,72.4,46.4,49.6,42.6,33.4,81,42,12,30.00,29.84,4,1,13,0.00
2013-6-1,100.7,77.9,51.3,59.4,49.0,40.6,84,45,13,29.88,29.69,3,1,8,0.00
2013-6-2,96.4,76.2,54.1,60.6,53.6,48.2,88,52,20,29.73,29.58,2,0,5,0.00
2013-6-3,101.2,79.3,54.2,59.7,51.1,43.2,85,46,14,29.73,29.63,4,1,10,0.00
2013-6-4,89.6,73.7,56.4,61.7,58.1,53.1,89,61,37,29.84,29.73,3,1,7,0.00
2013-6-5,89.8,72.6,55.9,66.6,59.8,53.7,93,67,42,29.95,29.78,3,1,5,0.00
2013-6-6,95.1,76.2,57.8,68.8,63.0,56.2,95,68,40,29.89,29.73,2,0,5,0.00
2013-6-7,107.9,82.8,60.9,69.5,59.5,37.8,95,55,10,29.83,29.65,3,0,6,0.00
2013-6-8,110.8,88.0,63.4,65.1,58.3,49.9,82,44,14,29.69,29.56,4,1,11,0.00
2013-6-9,90.2,77.3,63.3,63.7,59.9,54.9,85,57,37,29.78,29.61,4,1,10,0.00
2013-6-10,76.2,64.4,57.0,59.9,56.4,54.0,92,76,54,29.94,29.77,3,0,7,0.06
2013-6-11,87.3,69.0,52.2,62.0,54.5,44.7,97,65,24,29.95,29.83,3,1,9,0.00
2013-6-12,88.6,70.6,52.9,58.5,51.7,44.0,90,56,23,29.91,29.83,3,1,9,0.00
2013-6-13,87.6,68.8,50.5,52.4,44.7,33.7,85,48,15,30.04,29.91,3,0,6,0.00
2013-6-14,93.0,71.5,49.5,51.3,42.3,36.3,73,41,15,29.99,29.75,4,1,11,0.00
2013-6-15,93.0,73.6,52.5,53.5,46.7,39.0,77,44,16,29.88,29.79,4,1,7,0.00
2013-6-16,91.8,73.3,52.1,55.7,49.2,40.2,80,47,17,30.00,29.88,3,1,5,0.00
2013-6-17,89.0,73.0,53.6,55.4,51.2,43.9,84,51,22,30.01,29.86,3,1,8,0.00
2013-6-18,79.7,67.6,53.0,57.3,52.1,42.8,89,61,28,29.95,29.82,4,1,10,0.01
2013-6-19,81.4,65.9,49.9,53.3,47.8,40.7,90,56,24,30.03,29.91,3,1,7,0.00
2013-6-20,86.2,68.5,49.4,51.1,46.8,43.2,82,51,24,29.97,29.86,2,0,5,0.00
2013-6-21,91.3,71.7,50.1,52.7,45.3,37.9,83,45,16,29.94,29.83,4,1,13,0.00
2013-6-22,94.8,74.0,51.0,51.6,45.4,40.1,77,42,16,29.89,29.73,3,1,7,0.00
2013-6-23,80.0,68.4,56.1,61.2,54.9,44.9,84,63,42,29.81,29.72,5,1,11,0.01
2013-6-24,72.1,65.2,60.3,60.1,57.9,50.2,95,78,48,29.89,29.72,4,0,7,0.16
2013-6-25,75.4,65.7,60.3,69.1,63.5,58.9,97,93,77,29.95,29.87,2,0,4,0.96
2013-6-26,88.2,75.0,64.4,68.8,65.2,63.2,97,74,46,30.00,29.93,4,1,8,0.00
2013-6-27,98.0,78.2,60.7,69.0,64.3,59.8,98,67,30,30.05,29.95,2,0,4,0.00
2013-6-28,104.0,82.6,60.6,68.8,63.8,58.1,92,59,26,30.00,29.80,2,0,4,0.00
2013-6-29,107.7,86.5,66.4,68.0,62.9,52.7,85,52,17,29.88,29.71,2,0,6,0.00
2013-6-30,107.1,84.4,62.2,67.9,60.4,47.4,83,50,14,29.78,29.66,3,1,5,0.00
2013-7-1,107.5,85.8,64.7,70.6,63.8,57.7,82,53,21,29.79,29.71,2,0,4,0.00
2013-7-2,104.1,88.2,70.3,72.7,66.7,59.2,73,51,28,29.83,29.74,4,1,10,0.00
2013-7-3,108.7,88.5,69.4,79.2,66.4,58.2,83,53,21,29.84,29.63,4,1,14,0.00
2013-7-4,110.5,89.2,72.7,71.0,61.8,45.7,75,47,12,29.72,29.54,4,1,9,0.00
2013-7-5,93.0,79.7,65.0,64.8,60.0,52.4,85,54,31,29.67,29.57,3,1,9,0.00
2013-7-6,92.8,75.4,58.1,65.8,59.9,54.0,88,62,35,29.74,29.64,3,1,8,0.00
2013-7-7,95.7,76.9,55.4,61.5,56.3,47.2,89,55,22,29.79,29.69,2,1,6,0.00
2013-7-8,96.3,75.9,55.4,60.3,52.8,40.9,86,50,21,29.92,29.79,3,1,6,0.00
2013-7-9,102.2,77.8,55.7,58.4,50.7,36.4,84,46,12,30.00,29.88,3,1,6,0.00
2013-7-10,100.2,80.8,60.0,57.3,50.3,39.4,67,39,13,29.91,29.76,4,1,10,0.00
2013-7-11,97.6,74.8,53.8,57.3,47.0,21.5,79,44,7,29.87,29.75,3,1,8,0.00
2013-7-12,94.4,72.6,51.1,58.3,50.4,36.8,85,51,14,29.89,29.77,4,1,8,0.00
2013-7-13,96.4,75.3,53.4,56.6,50.4,40.4,84,48,17,29.92,29.82,3,1,6,0.00
2013-7-14,99.1,76.7,54.6,56.2,49.6,42.3,73,44,15,29.93,29.78,2,0,5,0.00
2013-7-15,92.4,74.2,56.7,61.1,52.9,44.9,81,51,22,29.83,29.70,3,1,7,0.00
2013-7-16,89.1,70.8,54.7,55.9,51.0,40.2,85,54,19,29.96,29.77,3,1,7,0.00
2013-7-17,93.9,71.9,49.5,58.8,51.5,46.1,90,55,22,30.06,29.93,2,0,4,0.00
2013-7-18,97.3,75.0,53.1,61.5,51.9,44.2,86,50,19,30.01,29.84,3,0,5,0.00
2013-7-19,98.7,78.1,56.7,63.4,56.8,51.4,87,53,26,29.89,29.71,3,1,7,0.00
2013-7-20,100.5,80.8,61.1,67.4,62.2,56.7,87,58,28,29.78,29.60,2,1,6,0.00
2013-7-21,98.9,82.3,63.8,70.4,63.6,60.1,89,57,32,29.75,29.64,3,1,8,0.00
2013-7-22,95.4,78.8,60.8,63.1,57.7,49.8,89,53,25,29.90,29.75,3,1,6,0.00
2013-7-23,95.0,79.6,64.9,61.8,56.7,49.4,71,48,30,29.97,29.84,3,1,7,0.00
2013-7-24,99.3,81.8,64.6,63.8,59.7,52.2,82,51,26,29.93,29.80,3,0,4,0.00
2013-7-25,100.8,83.8,66.4,69.2,63.4,60.4,82,54,28,29.89,29.80,2,1,6,0.00
2013-7-26,99.2,81.9,66.4,68.9,63.7,58.9,84,57,31,30.00,29.85,3,1,6,0.00
2013-7-27,97.3,80.1,63.4,67.3,61.8,57.4,87,57,32,29.92,29.72,3,1,8,0.00
2013-7-28,94.6,78.1,60.4,67.8,61.9,56.5,89,61,33,29.79,29.66,3,1,7,0.00
2013-7-29,88.2,71.6,56.8,61.8,56.7,51.2,91,63,29,29.94,29.73,4,1,8,0.00
2013-7-30,90.9,71.3,52.8,61.6,55.7,49.6,90,62,30,30.06,29.93,3,1,5,0.00
2013-7-31,94.0,73.5,57.1,60.9,54.5,47.7,83,55,21,30.01,29.86,3,1,7,0.00
2013-8-1,88.7,69.6,52.1,59.5,52.3,47.7,85,58,26,29.99,29.87,3,1,9,0.00
2013-8-2,93.7,72.4,53.5,59.1,51.4,45.2,82,53,19,29.93,29.80,2,0,4,0.00
2013-8-3,94.8,73.2,53.8,57.7,51.8,45.6,85,52,20,29.92,29.81,2,0,5,0.00
2013-8-4,91.9,72.6,52.8,61.6,53.6,47.2,85,55,26,29.95,29.83,3,1,6,0.00
2013-8-5,92.4,71.9,52.4,60.6,53.3,47.2,88,57,22,29.97,29.84,2,1,4,0.00
2013-8-6,91.1,70.6,51.0,61.3,54.1,47.8,89,60,27,29.96,29.85,4,1,6,0.00
2013-8-7,83.7,69.8,57.6,59.6,56.7,52.9,89,65,41,30.04,29.93,3,1,7,0.00
2013-8-8,85.5,68.1,52.4,61.6,55.1,50.6,95,67,31,29.99,29.85,3,1,6,0.00
2013-8-9,87.9,69.2,53.0,58.2,53.1,47.1,87,61,25,29.92,29.83,2,1,5,0.00
2013-8-10,88.5,69.9,52.8,60.5,54.0,48.3,91,62,26,30.00,29.89,2,1,5,0.00
2013-8-11,93.1,72.2,53.6,62.7,54.7,49.0,87,58,23,29.99,29.83,2,0,5,0.00
2013-8-12,92.3,72.7,53.8,59.3,52.8,48.1,83,54,23,29.95,29.85,2,0,6,0.00
2013-8-13,97.9,74.7,54.2,56.9,49.7,38.3,84,48,13,29.97,29.82,2,0,4,0.00
2013-8-14,100.1,75.7,54.7,57.2,48.9,32.5,76,44,10,29.93,29.79,3,1,5,0.00
2013-8-15,99.1,74.9,54.4,60.4,52.0,42.2,77,49,17,29.92,29.81,4,1,7,0.00
2013-8-16,100.1,75.8,54.8,63.1,53.2,43.0,82,51,15,29.95,29.84,3,1,5,0.00
2013-8-17,97.7,76.9,58.1,62.9,55.9,50.1,78,52,23,29.94,29.76,2,0,5,0.00
2013-8-18,98.6,78.5,60.2,67.4,60.2,54.3,82,57,28,29.85,29.72,3,1,5,0.00
2013-8-19,96.1,80.1,66.4,73.3,64.5,60.6,84,62,34,29.85,29.73,2,0,4,0.00
2013-8-20,97.5,82.0,71.2,68.1,63.4,58.4,76,56,33,29.85,29.68,3,0,8,0.00
2013-8-21,94.7,77.1,64.9,65.7,61.4,56.8,88,61,33,29.85,29.76,3,1,6,0.00
2013-8-22,91.8,75.2,60.0,59.1,55.8,51.4,85,55,28,29.88,29.77,3,1,8,0.00
2013-8-23,90.7,70.0,51.3,59.3,53.6,48.1,90,60,24,29.89,29.71,3,1,4,0.00
2013-8-24,89.5,71.5,54.2,59.0,54.2,49.8,86,58,31,29.83,29.73,4,1,7,0.00
2013-8-25,87.5,72.4,58.0,62.3,56.1,52.9,84,59,33,29.89,29.81,4,1,9,0.00
2013-8-26,87.3,69.6,55.0,60.1,54.6,51.4,90,62,31,29.97,29.84,3,1,6,0.00
2013-8-27,91.5,67.0,52.3,56.3,51.1,44.7,91,63,20,29.88,29.76,2,0,6,0.00
2013-8-28,93.0,72.1,53.4,59.3,51.9,46.7,85,54,21,29.87,29.78,3,1,5,0.00
2013-8-29,94.2,72.7,53.8,62.3,50.8,41.9,81,51,17,29.99,29.86,3,1,7,0.00
2013-8-30,96.6,74.0,54.2,57.4,49.8,40.4,80,48,15,30.02,29.84,2,0,4,0.00
2013-8-31,97.1,76.0,56.7,57.9,50.2,44.0,71,44,17,29.93,29.78,3,1,11,0.00
2013-9-1,86.8,74.4,61.5,64.6,56.0,49.8,74,54,32,29.89,29.78,3,0,6,0.00
2013-9-2,88.3,76.9,65.1,64.1,59.5,54.0,76,57,34,29.90,29.79,5,1,12,0.00
2013-9-3,87.5,70.6,55.9,62.7,56.2,52.3,89,63,33,29.95,29.84,3,1,8,0.00
2013-9-4,88.8,68.4,52.6,60.5,53.0,44.7,94,63,25,30.00,29.85,3,1,7,0.00
2013-9-5,86.2,67.0,51.4,61.8,52.5,45.6,92,64,25,29.98,29.88,3,1,6,0.00
2013-9-6,94.3,71.4,50.9,52.8,47.1,39.7,83,49,16,29.98,29.80,3,1,8,0.00
2013-9-7,96.4,73.0,52.6,56.6,48.7,38.6,80,49,14,29.88,29.75,2,0,4,0.00
2013-9-8,98.6,76.0,55.9,57.8,50.8,45.9,75,47,18,29.86,29.69,2,0,5,0.00
2013-9-9,103.0,78.5,57.3,57.5,50.2,41.7,76,45,13,29.76,29.59,3,1,8,0.00
2013-9-10,98.9,76.3,56.4,60.1,54.7,47.8,75,51,25,29.80,29.65,2,1,4,0.00
2013-9-11,87.4,70.6,57.0,63.1,58.5,53.7,90,68,42,29.94,29.80,2,0,4,0.00
2013-9-12,91.1,71.3,54.8,63.9,58.9,53.1,95,69,34,29.97,29.79,1,0,3,0.00
2013-9-13,95.9,74.3,58.0,68.1,61.0,55.6,93,67,32,29.86,29.65,1,0,4,0.00
2013-9-14,96.3,74.9,58.6,67.2,61.2,56.6,94,67,35,29.76,29.61,2,0,3,0.00
2013-9-15,90.9,69.8,53.8,59.8,52.7,44.0,95,62,21,29.81,29.68,3,0,5,0.00
2013-9-16,89.7,68.1,48.7,58.7,51.7,45.0,88,60,28,29.88,29.70,2,0,5,0.00
2013-9-17,84.5,67.7,55.9,59.4,54.7,50.8,87,65,38,29.87,29.72,2,0,7,0.00
2013-9-18,88.5,66.1,46.7,51.2,44.8,36.0,94,55,16,29.91,29.76,4,1,11,0.00
2013-9-19,92.9,66.1,46.0,55.0,46.4,41.1,85,55,20,29.86,29.71,1,0,3,0.00
2013-9-20,86.0,68.3,47.9,58.3,48.1,39.6,83,54,20,29.78,29.68,3,1,7,0.00
2013-9-21,68.0,60.7,54.1,61.1,57.6,53.3,97,90,69,29.90,29.75,3,0,12,1.66
2013-9-22,75.4,59.3,46.8,58.1,52.7,46.3,99,82,45,30.00,29.89,2,0,6,0.01
2013-9-23,86.8,64.6,50.0,60.2,54.8,48.9,98,75,34,30.01,29.89,2,0,5,0.01
2013-9-24,80.8,65.3,54.1,59.0,56.1,50.7,94,75,36,29.94,29.78,2,1,8,0.30
2013-9-25,73.4,57.0,44.8,52.8,44.1,32.2,98,69,23,29.91,29.79,3,1,8,0.01
2013-9-26,76.9,55.6,39.7,46.3,40.8,34.4,96,65,22,30.03,29.86,4,1,8,0.00
2013-9-27,79.4,57.6,40.4,48.4,41.4,35.7,95,63,21,30.10,30.00,3,1,10,0.00
2013-9-28,81.4,62.2,47.4,50.1,44.8,32.7,89,59,19,30.09,29.94,2,1,9,0.00
2013-9-29,73.3,65.0,55.2,60.3,53.9,44.8,76,68,59,30.05,29.96,2,0,5,0.00
2013-9-30,77.2,67.4,58.8,62.0,59.7,56.8,93,77,57,30.02,29.91,2,0,7,0.00
2013-10-1,80.5,63.6,52.7,61.9,55.3,50.1,98,78,37,30.00,29.89,2,0,6,0.00
2013-10-2,79.8,61.4,48.7,54.6,45.8,30.9,94,63,23,29.98,29.90,3,0,6,0.00
2013-10-3,77.5,55.3,38.6,41.9,36.3,27.8,92,58,17,30.13,29.99,3,1,13,0.00
2013-10-4,83.0,60.8,39.2,38.5,32.3,24.0,88,45,13,30.20,30.08,3,1,10,0.00
2013-10-5,84.8,63.3,43.0,47.5,36.2,24.6,73,42,16,30.21,30.11,2,1,6,0.00
2013-10-6,85.4,59.6,42.7,50.8,42.8,37.1,89,60,18,30.15,30.00,1,0,4,0.00
2013-10-7,81.9,58.8,41.5,53.6,42.0,36.7,87,60,21,30.01,29.85,2,1,3,0.00
2013-10-8,78.7,56.0,39.1,46.0,39.5,33.6,93,61,21,29.90,29.65,3,1,10,0.00
2013-10-9,77.2,56.3,39.1,46.0,40.6,36.6,92,61,25,29.76,29.58,3,0,9,0.00
2013-10-10,72.9,56.3,45.1,50.2,45.2,39.6,86,69,41,30.00,29.75,2,1,5,0.00
2013-10-11,76.7,57.1,43.1,50.7,45.3,41.1,94,69,32,30.08,29.95,1,0,4,0.00
2013-10-12,76.2,57.6,42.7,53.8,46.1,40.3,94,70,34,30.00,29.84,2,0,5,0.05
2013-10-13,77.3,56.4,42.0,50.9,44.3,39.2,98,71,29,30.06,29.93,2,0,8,0.01
2013-10-14,78.2,56.1,39.1,44.8,39.8,33.8,95,62,21,30.13,30.00,3,1,7,0.00
2013-10-15,82.9,58.8,39.1,40.0,36.3,30.4,89,51,16,30.10,29.97,4,1,10,0.00
2013-10-16,82.3,56.4,39.6,49.9,39.1,33.9,82,59,20,30.13,30.00,2,0,4,0.00
2013-10-17,81.2,57.0,40.3,47.0,40.8,37.0,89,62,21,30.09,29.94,2,1,3,0.00
2013-10-18,82.4,56.4,39.6,48.2,41.1,37.2,92,64,22,30.06,29.98,2,0,3,0.00
2013-10-19,85.2,57.8,41.0,50.6,43.3,38.9,93,66,22,30.09,29.99,1,0,3,0.00
2013-10-20,84.7,58.5,41.4,52.8,44.5,39.3,93,66,24,30.03,29.86,1,0,3,0.00
2013-10-21,79.9,57.4,41.4,54.3,44.9,39.3,93,69,30,29.99,29.88,2,0,3,0.00
2013-10-22,86.0,57.9,40.7,53.9,43.8,39.1,94,67,23,30.03,29.90,1,1,4,0.00
2013-10-23,84.3,56.9,39.3,49.4,40.2,34.6,89,62,20,29.95,29.83,2,0,3,0.00
2013-10-24,79.3,54.9,39.1,49.0,42.4,36.0,90,68,30,30.06,29.91,1,0,3,0.00
2013-10-25,78.5,53.5,37.3,52.0,43.1,35.4,93,72,32,30.18,30.06,2,0,3,0.00
2013-10-26,80.2,54.6,38.3,49.2,42.8,36.7,94,70,30,30.17,30.01,1,0,3,0.00
2013-10-27,73.5,53.3,38.9,50.0,42.7,36.9,95,72,31,30.01,29.58,4,1,7,0.05
2013-10-28,58.5,48.9,38.7,51.8,44.2,37.9,98,85,64,29.86,29.61,2,0,6,0.01
2013-10-29,61.0,52.9,42.2,50.8,47.5,40.6,95,82,66,30.07,29.86,2,0,5,0.00
2013-10-30,67.9,48.9,36.2,47.9,41.7,35.2,98,80,43,30.16,30.06,1,0,5,0.01
2013-10-31,70.6,50.0,36.4,47.8,42.1,35.4,98,78,40,30.19,30.08,2,0,4,0.00
2013-11-1,76.1,52.5,38.8,51.2,43.4,37.8,98,76,33,30.19,30.03,1,0,4,0.00
2013-11-2,73.8,53.7,37.1,46.8,40.3,35.5,95,66,34,30.04,29.87,2,1,4,0.00
2013-11-3,66.6,48.2,31.3,38.3,30.5,25.3,95,58,23,30.05,29.90,3,1,9,0.00
2013-11-4,69.2,47.0,30.9,33.1,29.4,27.0,88,58,22,30.14,29.93,4,1,14,0.00
2013-11-5,74.3,51.4,35.4,41.9,35.0,29.7,84,59,22,30.25,30.11,3,1,7,0.00
2013-11-6,70.5,52.5,39.1,45.5,39.7,35.9,89,66,32,30.28,30.19,2,0,2,0.00
2013-11-7,73.5,55.4,43.7,46.4,41.2,37.2,88,63,28,30.20,30.05,2,0,4,0.00
2013-11-8,74.9,52.4,38.9,46.0,39.2,35.6,89,66,27,30.10,29.94,1,0,3,0.00
2013-11-9,75.2,51.8,38.1,48.3,41.9,36.5,96,73,34,30.05,29.97,2,0,3,0.00
2013-11-10,75.2,50.9,36.9,47.0,40.4,35.3,95,72,28,30.11,30.04,2,0,4,0.00
2013-11-11,74.8,50.0,34.1,43.1,36.9,31.7,92,66,23,30.19,30.08,2,0,3,0.00
2013-11-12,72.6,56.7,43.4,47.0,41.4,37.3,86,59,32,30.28,30.17,2,0,4,0.00
2013-11-13,80.8,55.1,38.4,48.2,41.5,36.5,94,67,26,30.24,30.06,3,0,6,0.00
2013-11-14,72.6,51.7,38.7,47.8,41.9,36.3,92,73,37,30.10,29.84,2,0,4,0.00
2013-11-15,69.3,48.5,34.5,41.2,33.5,27.2,97,64,23,29.85,29.69,3,1,11,0.00
2013-11-16,64.6,48.6,37.9,42.2,36.9,31.5,88,66,39,29.94,29.74,2,1,5,0.00
2013-11-17,65.3,45.4,33.1,43.7,37.3,31.5,95,77,43,30.11,29.93,2,1,4,0.00
2013-11-18,61.6,47.0,33.6,47.0,40.5,32.3,96,80,51,30.16,30.06,2,0,7,0.00
2013-11-19,55.6,52.1,48.5,54.8,51.1,45.2,98,96,87,30.10,29.94,1,0,2,1.34
2013-11-20,55.5,54.1,51.3,54.9,53.6,50.8,99,98,97,29.94,29.85,1,0,4,0.70
2013-11-21,62.4,50.3,39.2,51.1,34.4,16.9,99,62,19,30.15,29.90,5,1,12,0.00
2013-11-22,72.7,46.3,30.9,32.1,25.2,6.7,84,54,8,30.19,30.04,4,1,8,0.00
2013-11-23,69.5,44.9,31.0,34.9,28.9,22.5,88,61,17,30.14,29.99,3,1,9,0.00
2013-11-24,60.6,41.4,30.0,45.3,36.0,28.7,97,83,52,30.29,30.14,3,1,4,0.00
2013-11-25,62.4,42.0,30.2,44.7,36.0,29.2,98,82,43,30.36,30.29,2,1,4,0.01
2013-11-26,63.3,43.6,33.1,45.3,37.6,32.1,98,82,46,30.31,30.09,2,1,4,0.00
2013-11-27,66.0,45.6,34.4,47.7,40.1,33.4,97,84,44,30.09,29.89,2,1,3,0.00
2013-11-28,68.9,48.2,36.5,48.2,40.5,35.5,97,78,33,30.10,29.91,2,1,4,0.00
2013-11-29,67.6,46.4,34.9,45.9,38.9,33.6,97,79,38,30.24,30.10,2,1,5,0.00
2013-11-30,66.9,48.2,38.3,46.2,40.5,36.7,95,78,39,30.30,30.19,2,1,6,0.00
2013-12-1,65.8,46.3,34.6,46.9,40.3,33.6,98,83,45,30.35,30.24,2,1,3,0.00
2013-12-2,62.8,48.6,35.6,49.6,43.5,34.7,98,84,55,30.24,29.87,2,1,3,0.01
2013-12-3,57.2,46.7,27.3,49.7,31.5,17.1,92,60,23,29.97,29.79,4,1,8,0.00
2013-12-4,48.3,31.6,21.7,23.8,19.1,12.4,91,66,24,30.12,29.97,3,1,8,0.00
2013-12-5,47.4,29.0,19.5,22.1,18.7,15.4,92,70,29,30.19,30.11,3,1,5,0.00
2013-12-6,45.1,32.6,20.6,35.0,26.1,18.1,95,79,46,30.24,29.93,2,1,7,0.38
2013-12-7,43.3,34.3,25.1,35.1,29.8,23.9,98,85,49,30.28,29.93,3,1,7,0.02
2013-12-8,42.3,28.6,20.9,27.1,22.3,18.9,95,80,40,30.39,30.28,2,1,7,0.01
2013-12-9,50.1,32.0,21.5,27.4,22.4,17.7,93,72,28,30.50,30.39,3,1,6,0.00
2013-12-10,51.2,33.3,21.5,31.0,24.9,20.0,95,76,37,30.49,30.23,2,1,5,0.00
2013-12-11,55.1,34.6,24.0,35.5,28.5,22.6,96,81,45,30.29,30.22,2,1,4,0.01
2013-12-12,57.9,36.9,24.9,35.8,29.3,23.7,96,78,36,30.31,30.18,3,1,4,0.00
2013-12-13,61.8,38.9,25.6,35.5,30.2,24.1,95,76,31,30.34,30.25,2,1,4,0.00
2013-12-14,58.7,38.8,28.7,39.3,32.4,27.1,95,81,46,30.45,30.32,2,1,6,0.00
2013-12-15,62.3,39.6,27.8,39.5,32.5,26.6,97,80,39,30.43,30.27,3,1,4,0.01
2013-12-16,64.1,40.6,28.7,43.3,34.6,27.5,97,82,42,30.30,30.16,3,1,5,0.00
2013-12-17,63.4,42.3,30.6,44.6,36.2,29.6,97,82,46,30.23,30.08,3,1,3,0.00
2013-12-18,58.9,43.4,32.4,43.8,37.4,31.1,96,81,50,30.07,29.75,3,1,4,0.00
2013-12-19,61.3,45.5,33.9,35.7,26.8,14.4,96,56,22,30.00,29.71,5,2,11,0.00
2013-12-20,61.2,40.2,27.0,30.2,22.3,10.0,80,55,14,30.05,29.93,2,1,5,0.00
2013-12-21,59.5,40.3,28.9,39.6,31.8,27.0,95,75,39,30.12,29.99,3,1,4,0.00
2013-12-22,69.2,43.7,30.8,44.3,35.8,29.3,96,78,36,30.32,30.12,2,1,4,0.00
2013-12-23,63.7,42.6,30.5,45.1,36.2,29.5,98,81,44,30.45,30.32,2,1,5,0.00
2013-12-24,70.4,44.9,32.2,47.0,36.5,30.3,98,78,32,30.35,30.21,3,1,8,0.00
2013-12-25,65.3,41.2,28.3,43.3,34.0,26.6,95,79,40,30.35,30.23,2,1,5,0.00
2013-12-26,67.0,41.8,28.8,39.5,32.5,27.5,96,75,29,30.31,30.20,2,1,4,0.00
2013-12-27,60.1,39.8,29.1,40.1,32.7,27.8,95,79,42,30.29,30.16,3,1,3,0.00
2013-12-28,68.9,41.0,26.6,37.5,29.9,25.2,95,72,24,30.19,30.08,2,1,6,0.01
2013-12-29,60.9,41.4,30.1,38.5,31.3,24.0,91,70,41,30.24,30.13,2,1,5,0.00
2013-12-30,63.2,42.1,28.5,38.9,32.7,27.0,95,74,33,30.29,30.22,2,1,4,0.00
2013-12-31,65.2,44.0,33.8,38.9,33.2,30.3,90,71,27,30.29,30.17,3,1,5,0.00
2014-1-1,62.2,41.2,30.0,39.8,33.2,28.2,95,77,38,30.24,30.15,2,1,4,0.00
2014-1-2,67.0,44.2,30.6,42.7,34.9,29.3,97,75,32,30.21,30.08,2,1,3,0.00